Observation data for Tatum on 11/14/2019      Previous  Date  Next       Current Mesonet Observations  Soil Data  Daily Summary Page  Observations in Plain Language
KTAT 140600Z 01009KT 04/M04 A3009 RMK A01 T00381035  RH  059%=      5-min Rain = 0
KTAT 140605Z 01009KT 04/M04 A3009 RMK A01 T00361036  RH  060%=      5-min Rain = 0
KTAT 140610Z 01009KT 03/M04 A3009 RMK A01 T00331036  RH  061%=      5-min Rain = 0
KTAT 140615Z 01009KT 03/M04 A3009 RMK A01 T00311036  RH  062%=      5-min Rain = 0
KTAT 140620Z 01009KT 03/M04 A3009 RMK A01 T00311036  RH  062%=      5-min Rain = 0
KTAT 140625Z 01009KT 03/M04 A301 RMK A01 T00301035  RH  062%=      5-min Rain = 0
KTAT 140630Z 01009KT 03/M04 A301 RMK A01 T00301036  RH  062%=      5-min Rain = 0
KTAT 140635Z 01009KT 03/M04 A301 RMK A01 T00291036  RH  062%=      5-min Rain = 0
KTAT 140640Z 01009KT 03/M04 A301 RMK A01 T00291036  RH  063%=      5-min Rain = 0
KTAT 140645Z 01008KT 03/M04 A3011 RMK A01 T00291037  RH  062%=      5-min Rain = 0
KTAT 140650Z 01009KT 03/M04 A3011 RMK A01 T00281037  RH  063%=      5-min Rain = 0
KTAT 140655Z 01009KT 03/M04 A3011 RMK A01 T00281037  RH  062%=      5-min Rain = 0
KTAT 140700Z 01009KT 03/M04 A3011 RMK A01 T00281038  RH  062%=      5-min Rain = 0
KTAT 140705Z 01010KT 03/M04 A3012 RMK A01 T00291038  RH  062%=      5-min Rain = 0
KTAT 140710Z 02009KT 03/M04 A3012 RMK A01 T00291039  RH  061%=      5-min Rain = 0
KTAT 140715Z 02009KT 03/M04 A3012 RMK A01 T00291039  RH  061%=      5-min Rain = 0
KTAT 140720Z 01008KT 03/M04 A3012 RMK A01 T00271039  RH  062%=      5-min Rain = 0
KTAT 140725Z 01008KT 03/M04 A3013 RMK A01 T00251038  RH  064%=      5-min Rain = 0
KTAT 140730Z 00008KT 02/M04 A3013 RMK A01 T00231038  RH  064%=      5-min Rain = 0
KTAT 140735Z 35008KT 02/M04 A3013 RMK A01 T00241037  RH  064%=      5-min Rain = 0
KTAT 140740Z 35009KT 02/M04 A3014 RMK A01 T00241037  RH  064%=      5-min Rain = 0
KTAT 140745Z 35008KT 02/M04 A3014 RMK A01 T00221038  RH  065%=      5-min Rain = 0
KTAT 140750Z 36009KT 02/M04 A3014 RMK A01 T00241037  RH  064%=      5-min Rain = 0
KTAT 140755Z 00008KT 03/M04 A3015 RMK A01 T00261037  RH  064%=      5-min Rain = 0
KTAT 140800Z 01008KT 03/M04 A3015 RMK A01 T00261036  RH  064%=      5-min Rain = 0
KTAT 140805Z 01007KT 03/M04 A3015 RMK A01 T00251036  RH  065%=      5-min Rain = 0
KTAT 140810Z 01007KT 02/M04 A3016 RMK A01 T00231035  RH  066%=      5-min Rain = 0
KTAT 140815Z 01008KT 02/M04 A3016 RMK A01 T00221035  RH  066%=      5-min Rain = 0
KTAT 140820Z 00008KT 02/M04 A3016 RMK A01 T00211035  RH  067%=      5-min Rain = 0
KTAT 140825Z 00008KT 02/M04 A3016 RMK A01 T00211035  RH  067%=      5-min Rain = 0
KTAT 140830Z 01008KT 02/M04 A3016 RMK A01 T00211035  RH  067%=      5-min Rain = 0
KTAT 140835Z 01008KT 02/M04 A3016 RMK A01 T00191035  RH  068%=      5-min Rain = 0
KTAT 140840Z 01009KT 02/M04 A3016 RMK A01 T00191035  RH  068%=      5-min Rain = 0
KTAT 140845Z 01009KT 02/M04 A3016 RMK A01 T00201035  RH  068%=      5-min Rain = 0
KTAT 140850Z 01009KT 02/M04 A3016 RMK A01 T00231035  RH  066%=      5-min Rain = 0
KTAT 140855Z 01009KT 02/M04 A3016 RMK A01 T00241036  RH  065%=      5-min Rain = 0
KTAT 140900Z 01009KT 03/M04 A3016 RMK A01 T00251036  RH  064%=      5-min Rain = 0
KTAT 140905Z 01009KT 03/M04 A3016 RMK A01 T00251037  RH  064%=      5-min Rain = 0
KTAT 140910Z 01009KT 02/M04 A3017 RMK A01 T00241038  RH  064%=      5-min Rain = 0
KTAT 140915Z 01009KT 02/M04 A3017 RMK A01 T00231039  RH  064%=      5-min Rain = 0
KTAT 140920Z 01010KT 02/M04 A3017 RMK A01 T00231040  RH  063%=      5-min Rain = 0
KTAT 140925Z 01009KT 02/M04 A3017 RMK A01 T00231042  RH  063%=      5-min Rain = 0
KTAT 140930Z 02010KT 02/M04 A3017 RMK A01 T00231043  RH  062%=      5-min Rain = 0
KTAT 140935Z 02010KT 03/M05 A3017 RMK A01 T00251045  RH  060%=      5-min Rain = 0
KTAT 140940Z 02010KT 03/M05 A3018 RMK A01 T00271047  RH  059%=      5-min Rain = 0
KTAT 140945Z 02011KT 03/M05 A3018 RMK A01 T00271048  RH  058%=      5-min Rain = 0
KTAT 140950Z 02012KT 03/M05 A3017 RMK A01 T00281050  RH  057%=      5-min Rain = 0
KTAT 140955Z 02012KT 03/M05 A3017 RMK A01 T00281050  RH  057%=      5-min Rain = 0
KTAT 141000Z 02012KT 03/M05 A3017 RMK A01 T00281051  RH  056%=      5-min Rain = 0
KTAT 141005Z 02011KT 03/M05 A3018 RMK A01 T00261051  RH  057%=      5-min Rain = 0
KTAT 141010Z 02011KT 02/M05 A3018 RMK A01 T00241051  RH  057%=      5-min Rain = 0
KTAT 141015Z 02011KT 02/M05 A3018 RMK A01 T00231052  RH  058%=      5-min Rain = 0
KTAT 141020Z 02011KT 02/M05 A3018 RMK A01 T00221052  RH  058%=      5-min Rain = 0
KTAT 141025Z 02010KT 02/M05 A3018 RMK A01 T00211052  RH  058%=      5-min Rain = 0
KTAT 141030Z 02010KT 02/M05 A3019 RMK A01 T00211052  RH  058%=      5-min Rain = 0
KTAT 141035Z 01010KT 02/M05 A3019 RMK A01 T00191052  RH  059%=      5-min Rain = 0
KTAT 141040Z 01011KT 02/M05 A3019 RMK A01 T00181052  RH  060%=      5-min Rain = 0
KTAT 141045Z 01011KT 02/M05 A3019 RMK A01 T00171052  RH  060%=      5-min Rain = 0
KTAT 141050Z 02011KT 02/M05 A3019 RMK A01 T00161052  RH  060%=      5-min Rain = 0
KTAT 141055Z 02011KT 02/M05 A3019 RMK A01 T00171052  RH  060%=      5-min Rain = 0
KTAT 141100Z 02011KT 02/M05 A3019 RMK A01 T00161052  RH  061%=      5-min Rain = 0
KTAT 141105Z 02012KT 02/M05 A3019 RMK A01 T00171052  RH  060%=      5-min Rain = 0
KTAT 141110Z 02012KT 02/M05 A302 RMK A01 T00181051  RH  060%=      5-min Rain = 0
KTAT 141115Z 02011KT 02/M05 A302 RMK A01 T00171051  RH  061%=      5-min Rain = 0
KTAT 141120Z 02011KT 02/M05 A302 RMK A01 T00161051  RH  061%=      5-min Rain = 0
KTAT 141125Z 02011KT 02/M05 A302 RMK A01 T00151050  RH  062%=      5-min Rain = 0
KTAT 141130Z 02012KT 02/M05 A3021 RMK A01 T00151050  RH  062%=      5-min Rain = 0
KTAT 141135Z 02011KT 01/M05 A3021 RMK A01 T00141050  RH  062%=      5-min Rain = 0
KTAT 141140Z 02011KT 01/M05 A3021 RMK A01 T00141051  RH  062%=      5-min Rain = 0
KTAT 141145Z 03012KT 01/M05 A3021 RMK A01 T00141051  RH  062%=      5-min Rain = 0
KTAT 141150Z 03012KT 01/M05 A3022 RMK A01 T00141051  RH  062%=      5-min Rain = 0
KTAT 141155Z 02011KT 01/M05 A3022 RMK A01 T00141051  RH  062%=      5-min Rain = 0
KTAT 141200Z 03011KT 01/M05 A3022 RMK A01 T00131051  RH  063%=      5-min Rain = 0
KTAT 141205Z 03011KT 01/M05 A3023 RMK A01 T00121050  RH  063%=      5-min Rain = 0
KTAT 141210Z 03010KT 01/M05 A3023 RMK A01 T00111049  RH  064%=      5-min Rain = 0
KTAT 141215Z 03010KT 01/M05 A3023 RMK A01 T00101048  RH  065%=      5-min Rain = 0
KTAT 141220Z 03010KT 01/M05 A3023 RMK A01 T00081048  RH  066%=      5-min Rain = 0
KTAT 141225Z 02009KT 01/M05 A3024 RMK A01 T00061048  RH  067%=      5-min Rain = 0
KTAT 141230Z 02009KT 01/M05 A3024 RMK A01 T00051047  RH  068%=      5-min Rain = 0
KTAT 141235Z 02009KT 01/M05 A3025 RMK A01 T00061047  RH  068%=      5-min Rain = 0
KTAT 141240Z 01009KT 01/M05 A3025 RMK A01 T00051047  RH  068%=      5-min Rain = 0
KTAT 141245Z 01008KT 00/M05 A3026 RMK A01 T00031047  RH  069%=      5-min Rain = 0
KTAT 141250Z 02009KT 00/M05 A3026 RMK A01 T00021046  RH  070%=      5-min Rain = 0
KTAT 141255Z 02009KT 00/M05 A3026 RMK A01 T00021046  RH  071%=      5-min Rain = 0
KTAT 141300Z 02010KT 00/M05 A3027 RMK A01 T00031046  RH  070%=      5-min Rain = 0
KTAT 141305Z 02010KT 00/M05 A3027 RMK A01 T00041046  RH  070%=      5-min Rain = 0
KTAT 141310Z 02011KT 01/M05 A3027 RMK A01 T00051045  RH  069%=      5-min Rain = 0
KTAT 141315Z 02010KT 01/M05 A3028 RMK A01 T00051045  RH  069%=      5-min Rain = 0
KTAT 141320Z 03011KT 01/M04 A3028 RMK A01 T00061044  RH  069%=      5-min Rain = 0
KTAT 141325Z 03011KT 01/M04 A3028 RMK A01 T00071043  RH  070%=      5-min Rain = 0
KTAT 141330Z 03011KT 01/M04 A3029 RMK A01 T00071042  RH  070%=      5-min Rain = 0
KTAT 141335Z 03011KT 01/M04 A3029 RMK A01 T00071042  RH  070%=      5-min Rain = 0
KTAT 141340Z 03010KT 01/M04 A3029 RMK A01 T00071042  RH  070%=      5-min Rain = 0
KTAT 141345Z 03010KT 01/M04 A303 RMK A01 T00071041  RH  071%=      5-min Rain = 0
KTAT 141350Z 03011KT 01/M04 A303 RMK A01 T00081040  RH  071%=      5-min Rain = 0
KTAT 141355Z 03011KT 01/M04 A3031 RMK A01 T00091039  RH  070%=      5-min Rain = 0
KTAT 141400Z 03011KT 01/M04 A3031 RMK A01 T00111038  RH  070%=      5-min Rain = 0
KTAT 141405Z 03010KT 01/M04 A3031 RMK A01 T00131037  RH  069%=      5-min Rain = 0
KTAT 141410Z 03009KT 02/M04 A3032 RMK A01 T00161036  RH  069%=      5-min Rain = 0
KTAT 141415Z 04010KT 02/M03 A3032 RMK A01 T00181034  RH  069%=      5-min Rain = 0
KTAT 141420Z 04010KT 02/M03 A3032 RMK A01 T00201033  RH  068%=      5-min Rain = 0
KTAT 141425Z 04010KT 02/M03 A3032 RMK A01 T00231032  RH  067%=      5-min Rain = 0
KTAT 141430Z 04010KT 03/M03 A3033 RMK A01 T00251031  RH  067%=      5-min Rain = 0
KTAT 141435Z 04011KT 03/M03 A3033 RMK A01 T00271030  RH  066%=      5-min Rain = 0
KTAT 141440Z 04010KT 03/M03 A3034 RMK A01 T00301028  RH  066%=      5-min Rain = 0
KTAT 141445Z 04010KT 03/M03 A3034 RMK A01 T00341026  RH  065%=      5-min Rain = 0
KTAT 141450Z 04011KT 04/M03 A3034 RMK A01 T00361026  RH  064%=      5-min Rain = 0
KTAT 141455Z 05011KT 04/M02 A3035 RMK A01 T00401023  RH  064%=      5-min Rain = 0
KTAT 141500Z 05012G18KT 04/M02 A3035 RMK A01 T00431021  RH  063%=      5-min Rain = 0
KTAT 141505Z 05012KT 05/M02 A3035 RMK A01 T00451020  RH  063%=      5-min Rain = 0
KTAT 141510Z 05012KT 05/M02 A3036 RMK A01 T00471019  RH  063%=      5-min Rain = 0
KTAT 141515Z 05013KT 05/M02 A3036 RMK A01 T00501017  RH  062%=      5-min Rain = 0
KTAT 141520Z 06012KT 05/M02 A3036 RMK A01 T00531015  RH  062%=      5-min Rain = 0
KTAT 141525Z 05013G18KT 06/M01 A3036 RMK A01 T00561014  RH  061%=      5-min Rain = 0
KTAT 141530Z 06012KT 06/M01 A3037 RMK A01 T00591011  RH  061%=      5-min Rain = 0
KTAT 141535Z 06013KT 06/M01 A3037 RMK A01 T00621010  RH  061%=      5-min Rain = 0
KTAT 141540Z 05014KT 06/M01 A3038 RMK A01 T00641009  RH  060%=      5-min Rain = 0
KTAT 141545Z 05015KT 07/M01 A3038 RMK A01 T00661008  RH  060%=      5-min Rain = 0
KTAT 141550Z 05015G20KT 07/M01 A3038 RMK A01 T00681007  RH  059%=      5-min Rain = 0
KTAT 141555Z 05014KT 07/M01 A3038 RMK A01 T00681007  RH  059%=      5-min Rain = 0
KTAT 141600Z 06015G20KT 07/M01 A3038 RMK A01 T00721005  RH  059%=      5-min Rain = 0
KTAT 141605Z 06014KT 07/M00 A3038 RMK A01 T00741004  RH  058%=      5-min Rain = 0
KTAT 141610Z 06013G18KT 08/M00 A3039 RMK A01 T00771003  RH  057%=      5-min Rain = 0
KTAT 141615Z 05016G21KT 08/M01 A3039 RMK A01 T00771005  RH  057%=      5-min Rain = 0
KTAT 141620Z 06016KT 07/M01 A3039 RMK A01 T00741005  RH  058%=      5-min Rain = 0
KTAT 141625Z 06015G20KT 08/M00 A3039 RMK A01 T00771004  RH  057%=      5-min Rain = 0
KTAT 141630Z 07015KT 08/M00 A3039 RMK A01 T00801004  RH  056%=      5-min Rain = 0
KTAT 141635Z 07014KT 08/M00 A304 RMK A01 T00821003  RH  055%=      5-min Rain = 0
KTAT 141640Z 07014KT 08/M00 A304 RMK A01 T00831003  RH  055%=      5-min Rain = 0
KTAT 141645Z 06015KT 08/M00 A304 RMK A01 T00831004  RH  055%=      5-min Rain = 0
KTAT 141650Z 06015G20KT 08/M00 A304 RMK A01 T00811004  RH  056%=      5-min Rain = 0
KTAT 141655Z 06015G20KT 08/M00 A304 RMK A01 T00811004  RH  056%=      5-min Rain = 0
KTAT 141700Z 06012KT 08/M00 A3041 RMK A01 T00841003  RH  055%=      5-min Rain = 0
KTAT 141705Z 07012KT 09/M00 A3041 RMK A01 T00871002  RH  054%=      5-min Rain = 0
KTAT 141710Z 06012KT 09/M00 A3041 RMK A01 T00911002  RH  053%=      5-min Rain = 0
KTAT 141715Z 05012KT 09/M00 A3041 RMK A01 T00901002  RH  053%=      5-min Rain = 0
KTAT 141720Z 05011KT 09/M00 A3041 RMK A01 T00891002  RH  053%=      5-min Rain = 0
KTAT 141725Z 06012KT 09/00 A3041 RMK A01 T009400-0  RH  052%=      5-min Rain = 0
KTAT 141730Z 05012G19KT 10/00 A3041 RMK A01 T009900-0  RH  051%=      5-min Rain = 0
KTAT 141735Z 06011KT 10/M00 A3041 RMK A01 T00971001  RH  051%=      5-min Rain = 0
KTAT 141740Z 06013KT 10/00 A3041 RMK A01 T009800-0  RH  051%=      5-min Rain = 0
KTAT 141745Z 06012KT 10/M00 A3041 RMK A01 T00981001  RH  051%=      5-min Rain = 0
KTAT 141750Z 06013G18KT 10/00 A3041 RMK A01 T009900-0  RH  051%=      5-min Rain = 0
KTAT 141755Z 07013KT 10/00 A304 RMK A01 T010100-0  RH  050%=      5-min Rain = 0
KTAT 141800Z 07012G17KT 10/M00 A304 RMK A01 T01031001  RH  049%=      5-min Rain = 0
KTAT 141805Z 06012KT 10/M00 A304 RMK A01 T01001002  RH  050%=      5-min Rain = 0
KTAT 141810Z 06013KT 10/M00 A304 RMK A01 T01001002  RH  050%=      5-min Rain = 0
KTAT 141815Z 06013KT 10/00 A304 RMK A01 T010100-0  RH  050%=      5-min Rain = 0
KTAT 141820Z 07015KT 11/M00 A304 RMK A01 T01071001  RH  048%=      5-min Rain = 0
KTAT 141825Z 05014G19KT 10/M00 A304 RMK A01 T01041001  RH  049%=      5-min Rain = 0
KTAT 141830Z 06012KT 11/00 A3039 RMK A01 T01050001  RH  049%=      5-min Rain = 0
KTAT 141835Z 07013KT 11/00 A3039 RMK A01 T01080001  RH  048%=      5-min Rain = 0
KTAT 141840Z 07010KT 11/M00 A3039 RMK A01 T01091001  RH  047%=      5-min Rain = 0
KTAT 141845Z 06012KT 11/M00 A3039 RMK A01 T01111002  RH  046%=      5-min Rain = 0
KTAT 141850Z 07011KT 11/M00 A3038 RMK A01 T01111004  RH  045%=      5-min Rain = 0
KTAT 141855Z 06012KT 11/M01 A3038 RMK A01 T01141007  RH  044%=      5-min Rain = 0
KTAT 141900Z 07013KT 12/M01 A3038 RMK A01 T01161013  RH  041%=      5-min Rain = 0
KTAT 141905Z 05012G19KT 11/M02 A3038 RMK A01 T01121015  RH  042%=      5-min Rain = 0
KTAT 141910Z 07011G16KT 11/M01 A3038 RMK A01 T01131014  RH  041%=      5-min Rain = 0
KTAT 141915Z 05014G19KT 11/M02 A3038 RMK A01 T01131016  RH  041%=      5-min Rain = 0
KTAT 141920Z 05012G19KT 11/M02 A3038 RMK A01 T01111016  RH  042%=      5-min Rain = 0
KTAT 141925Z 05012KT 11/M02 A3038 RMK A01 T01131016  RH  041%=      5-min Rain = 0
KTAT 141930Z 05011G16KT 11/M02 A3037 RMK A01 T01111017  RH  041%=      5-min Rain = 0
KTAT 141935Z 06010KT 11/M02 A3037 RMK A01 T01121017  RH  041%=      5-min Rain = 0
KTAT 141940Z 06011KT 11/M02 A3037 RMK A01 T01131018  RH  041%=      5-min Rain = 0
KTAT 141945Z 06009KT 12/M02 A3037 RMK A01 T01161019  RH  039%=      5-min Rain = 0
KTAT 141950Z 08011KT 12/M02 A3037 RMK A01 T01191016  RH  039%=      5-min Rain = 0
KTAT 141955Z 06010G16KT 12/M02 A3037 RMK A01 T01211017  RH  039%=      5-min Rain = 0
KTAT 142000Z 05010KT 12/M02 A3037 RMK A01 T01181017  RH  039%=      5-min Rain = 0
KTAT 142005Z 05012KT 11/M02 A3037 RMK A01 T01141020  RH  039%=      5-min Rain = 0
KTAT 142010Z 04008KT 11/M02 A3036 RMK A01 T01121020  RH  040%=      5-min Rain = 0
KTAT 142015Z 06010KT 12/M02 A3036 RMK A01 T01171018  RH  039%=      5-min Rain = 0
KTAT 142020Z 06010KT 12/M02 A3036 RMK A01 T01171018  RH  040%=      5-min Rain = 0
KTAT 142025Z 04011KT 12/M02 A3036 RMK A01 T01181018  RH  039%=      5-min Rain = 0
KTAT 142030Z 05010KT 12/M02 A3036 RMK A01 T01151019  RH  039%=      5-min Rain = 0
KTAT 142035Z 07008G13KT 12/M02 A3036 RMK A01 T01151017  RH  040%=      5-min Rain = 0
KTAT 142040Z 05009KT 12/M02 A3036 RMK A01 T01181018  RH  039%=      5-min Rain = 0
KTAT 142045Z 09007KT 12/M02 A3036 RMK A01 T01201018  RH  039%=      5-min Rain = 0
KTAT 142050Z 07008G14KT 12/M02 A3036 RMK A01 T01211019  RH  038%=      5-min Rain = 0
KTAT 142055Z 06007KT 12/M02 A3036 RMK A01 T01191020  RH  038%=      5-min Rain = 0
KTAT 142100Z 06007KT 12/M02 A3036 RMK A01 T01181022  RH  038%=      5-min Rain = 0
KTAT 142105Z 06008KT 12/M02 A3036 RMK A01 T01181018  RH  039%=      5-min Rain = 0
KTAT 142110Z 07005KT 12/M02 A3036 RMK A01 T01211018  RH  038%=      5-min Rain = 0
KTAT 142115Z 07007KT 12/M02 A3036 RMK A01 T01241020  RH  037%=      5-min Rain = 0
KTAT 142120Z 07007KT 12/M02 A3036 RMK A01 T01221020  RH  037%=      5-min Rain = 0
KTAT 142125Z 07008KT 12/M02 A3036 RMK A01 T01231019  RH  037%=      5-min Rain = 0
KTAT 142130Z 07008KT 12/M02 A3036 RMK A01 T01241022  RH  036%=      5-min Rain = 0
KTAT 142135Z 06008KT 12/M02 A3036 RMK A01 T01221022  RH  037%=      5-min Rain = 0
KTAT 142140Z 07006KT 12/M02 A3036 RMK A01 T01231023  RH  036%=      5-min Rain = 0
KTAT 142145Z 07003KT 12/M02 A3036 RMK A01 T01231023  RH  036%=      5-min Rain = 0
KTAT 142150Z 05006KT 12/M02 A3036 RMK A01 T01241024  RH  036%=      5-min Rain = 0
KTAT 142155Z 04004KT 12/M03 A3036 RMK A01 T01191026  RH  037%=      5-min Rain = 0
KTAT 142200Z 05005KT 12/M02 A3036 RMK A01 T01171023  RH  038%=      5-min Rain = 0
KTAT 142205Z 06007KT 12/M02 A3036 RMK A01 T01161022  RH  039%=      5-min Rain = 0
KTAT 142210Z 07006KT 12/M02 A3036 RMK A01 T01191020  RH  038%=      5-min Rain = 0
KTAT 142215Z 04004KT 12/M02 A3036 RMK A01 T01211023  RH  037%=      5-min Rain = 0
KTAT 142220Z 07003KT 12/M02 A3036 RMK A01 T01181020  RH  039%=      5-min Rain = 0
KTAT 142225Z 06005KT 12/M02 A3036 RMK A01 T01201020  RH  038%=      5-min Rain = 0
KTAT 142230Z 06004KT 12/M02 A3036 RMK A01 T01181022  RH  038%=      5-min Rain = 0
KTAT 142235Z 08004KT 12/M02 A3036 RMK A01 T01191022  RH  037%=      5-min Rain = 0
KTAT 142240Z 09006KT 12/M03 A3036 RMK A01 T01201025  RH  037%=      5-min Rain = 0
KTAT 142245Z 08005KT 12/M03 A3036 RMK A01 T01191025  RH  037%=      5-min Rain = 0
KTAT 142250Z 07007KT 12/M02 A3036 RMK A01 T01181022  RH  038%=      5-min Rain = 0
KTAT 142255Z 07005KT 12/M03 A3036 RMK A01 T01161025  RH  038%=      5-min Rain = 0
KTAT 142300Z 07006KT 11/M02 A3036 RMK A01 T01141023  RH  038%=      5-min Rain = 0
KTAT 142305Z 08005KT 11/M02 A3036 RMK A01 T01141024  RH  038%=      5-min Rain = 0
KTAT 142310Z 08005KT 11/M02 A3036 RMK A01 T01131024  RH  039%=      5-min Rain = 0
KTAT 142315Z 09004KT 11/M02 A3037 RMK A01 T01111024  RH  039%=      5-min Rain = 0
KTAT 142320Z 09004KT 11/M02 A3037 RMK A01 T01111024  RH  039%=      5-min Rain = 0
KTAT 142325Z 11004KT 11/M03 A3037 RMK A01 T01081025  RH  039%=      5-min Rain = 0
KTAT 142330Z 10004KT 10/M02 A3037 RMK A01 T01021024  RH  041%=      5-min Rain = 0
KTAT 142335Z 12004KT 10/M03 A3037 RMK A01 T00961025  RH  043%=      5-min Rain = 0
KTAT 142340Z 12005KT 09/M03 A3037 RMK A01 T00871025  RH  046%=      5-min Rain = 0
KTAT 142345Z 13004KT 08/M02 A3037 RMK A01 T00821024  RH  048%=      5-min Rain = 0
KTAT 142350Z 13005KT 08/M02 A3038 RMK A01 T00791024  RH  049%=      5-min Rain = 0
KTAT 142355Z 13004KT 07/M02 A3038 RMK A01 T00741024  RH  050%=      5-min Rain = 0
KTAT 150000Z 13005KT 07/M02 A3038 RMK A01 T00681023  RH  053%=      5-min Rain = 0
KTAT 150005Z 13005KT 06/M02 A3038 RMK A01 T00641023  RH  054%=      5-min Rain = 0
KTAT 150010Z 13006KT 06/M03 A3038 RMK A01 T00601025  RH  055%=      5-min Rain = 0
KTAT 150015Z 14005KT 05/M03 A3038 RMK A01 T00541027  RH  056%=      5-min Rain = 0
KTAT 150020Z 14005KT 05/M03 A3038 RMK A01 T00491027  RH  058%=      5-min Rain = 0
KTAT 150025Z 14005KT 05/M03 A3039 RMK A01 T00471026  RH  059%=      5-min Rain = 0
KTAT 150030Z 14006KT 05/M03 A3039 RMK A01 T00451026  RH  060%=      5-min Rain = 0
KTAT 150035Z 13006KT 04/M03 A3039 RMK A01 T00421026  RH  062%=      5-min Rain = 0
KTAT 150040Z 14006KT 04/M03 A3039 RMK A01 T00381026  RH  063%=      5-min Rain = 0
KTAT 150045Z 14006KT 04/M03 A3039 RMK A01 T00371025  RH  064%=      5-min Rain = 0
KTAT 150050Z 14006KT 04/M03 A3039 RMK A01 T00371025  RH  065%=      5-min Rain = 0
KTAT 150055Z 14006KT 04/M03 A3039 RMK A01 T00361026  RH  064%=      5-min Rain = 0
KTAT 150100Z 14007KT 03/M03 A304 RMK A01 T00341027  RH  065%=      5-min Rain = 0
KTAT 150105Z 14007KT 03/M03 A304 RMK A01 T00311028  RH  066%=      5-min Rain = 0
KTAT 150110Z 14007KT 03/M03 A304 RMK A01 T00291027  RH  067%=      5-min Rain = 0
KTAT 150115Z 14007KT 03/M03 A304 RMK A01 T00281026  RH  068%=      5-min Rain = 0
KTAT 150120Z 14007KT 03/M03 A304 RMK A01 T00271025  RH  069%=      5-min Rain = 0
KTAT 150125Z 15007KT 03/M03 A304 RMK A01 T00261026  RH  069%=      5-min Rain = 0
KTAT 150130Z 15007KT 03/M03 A304 RMK A01 T00251026  RH  069%=      5-min Rain = 0
KTAT 150135Z 16007KT 02/M03 A304 RMK A01 T00231028  RH  070%=      5-min Rain = 0
KTAT 150140Z 16008KT 02/M03 A304 RMK A01 T00201029  RH  070%=      5-min Rain = 0
KTAT 150145Z 16007KT 02/M03 A3041 RMK A01 T00181029  RH  071%=      5-min Rain = 0
KTAT 150150Z 16008KT 02/M03 A3041 RMK A01 T00171028  RH  073%=      5-min Rain = 0
KTAT 150155Z 16008KT 02/M03 A3041 RMK A01 T00181027  RH  073%=      5-min Rain = 0
KTAT 150200Z 16008KT 02/M03 A3041 RMK A01 T00181027  RH  072%=      5-min Rain = 0
KTAT 150205Z 16008KT 02/M03 A3041 RMK A01 T00181027  RH  073%=      5-min Rain = 0
KTAT 150210Z 16007KT 02/M03 A3041 RMK A01 T00171027  RH  073%=      5-min Rain = 0
KTAT 150215Z 16007KT 02/M03 A3041 RMK A01 T00161028  RH  073%=      5-min Rain = 0
KTAT 150220Z 17007KT 02/M03 A3041 RMK A01 T00181026  RH  073%=      5-min Rain = 0
KTAT 150225Z 17007KT 02/M03 A3042 RMK A01 T00191025  RH  073%=      5-min Rain = 0
KTAT 150230Z 18006KT 02/M03 A3042 RMK A01 T00171026  RH  074%=      5-min Rain = 0
KTAT 150235Z 18007KT 02/M03 A3042 RMK A01 T00161025  RH  075%=      5-min Rain = 0
KTAT 150240Z 19006KT 01/M03 A3042 RMK A01 T00141026  RH  075%=      5-min Rain = 0
KTAT 150245Z 19006KT 01/M03 A3042 RMK A01 T00101027  RH  077%=      5-min Rain = 0
KTAT 150250Z 19006KT 01/M03 A3042 RMK A01 T00071027  RH  078%=      5-min Rain = 0
KTAT 150255Z 19006KT 01/M03 A3042 RMK A01 T00051028  RH  079%=      5-min Rain = 0
KTAT 150300Z 18006KT 01/M03 A3042 RMK A01 T00051028  RH  079%=      5-min Rain = 0
KTAT 150305Z 18006KT 01/M03 A3042 RMK A01 T00051027  RH  079%=      5-min Rain = 0
KTAT 150310Z 18007KT 01/M03 A3042 RMK A01 T00051027  RH  079%=      5-min Rain = 0
KTAT 150315Z 18006KT 01/M03 A3042 RMK A01 T00061027  RH  079%=      5-min Rain = 0
KTAT 150320Z 19006KT 01/M03 A3043 RMK A01 T00051028  RH  079%=      5-min Rain = 0
KTAT 150325Z 19006KT 00/M03 A3043 RMK A01 T00031028  RH  080%=      5-min Rain = 0
KTAT 150330Z 20007KT 00/M03 A3043 RMK A01 T00021028  RH  081%=      5-min Rain = 0
KTAT 150335Z 20007KT 00/03 A3043 RMK A01 T00000-29  RH  082%=      5-min Rain = 0
KTAT 150340Z 20006KT 00/03 A3043 RMK A01 T00-00-28  RH  082%=      5-min Rain = 0
KTAT 150345Z 20006KT M00/M03 A3043 RMK A01 T10011029  RH  082%=      5-min Rain = 0
KTAT 150350Z 19006KT M00/M03 A3043 RMK A01 T10021030  RH  082%=      5-min Rain = 0
KTAT 150355Z 19006KT M00/M03 A3043 RMK A01 T10021030  RH  082%=      5-min Rain = 0
KTAT 150400Z 20006KT M00/M03 A3043 RMK A01 T10021031  RH  082%=      5-min Rain = 0
KTAT 150405Z 20007KT M00/M03 A3043 RMK A01 T10041031  RH  082%=      5-min Rain = 0
KTAT 150410Z 20007KT M01/M03 A3043 RMK A01 T10051032  RH  083%=      5-min Rain = 0
KTAT 150415Z 21007KT M01/M03 A3043 RMK A01 T10061031  RH  083%=      5-min Rain = 0
KTAT 150420Z 20007KT M01/M03 A3043 RMK A01 T10061031  RH  084%=      5-min Rain = 0
KTAT 150425Z 20007KT M01/M03 A3043 RMK A01 T10061031  RH  083%=      5-min Rain = 0
KTAT 150430Z 20007KT M01/M03 A3043 RMK A01 T10071032  RH  084%=      5-min Rain = 0
KTAT 150435Z 21007KT M01/M03 A3044 RMK A01 T10081032  RH  084%=      5-min Rain = 0
KTAT 150440Z 21007KT M01/M03 A3044 RMK A01 T10061030  RH  085%=      5-min Rain = 0
KTAT 150445Z 21007KT M01/M03 A3043 RMK A01 T10051029  RH  084%=      5-min Rain = 0
KTAT 150450Z 21007KT M00/M03 A3043 RMK A01 T10041029  RH  084%=      5-min Rain = 0
KTAT 150455Z 22006KT M00/M03 A3044 RMK A01 T10041028  RH  084%=      5-min Rain = 0
KTAT 150500Z 22006KT M00/M03 A3043 RMK A01 T10041029  RH  084%=      5-min Rain = 0
KTAT 150505Z 21006KT M01/M03 A3043 RMK A01 T10061030  RH  084%=      5-min Rain = 0
KTAT 150510Z 21006KT M01/M03 A3043 RMK A01 T10071031  RH  084%=      5-min Rain = 0
KTAT 150515Z 21006KT M01/M03 A3043 RMK A01 T10061030  RH  084%=      5-min Rain = 0
KTAT 150520Z 20007KT M01/M03 A3043 RMK A01 T10061031  RH  084%=      5-min Rain = 0
KTAT 150525Z 20007KT M01/M03 A3044 RMK A01 T10071032  RH  084%=      5-min Rain = 0
KTAT 150530Z 20007KT M01/M03 A3044 RMK A01 T10081032  RH  084%=      5-min Rain = 0
KTAT 150535Z 19008KT M01/M03 A3043 RMK A01 T10081032  RH  084%=      5-min Rain = 0
KTAT 150540Z 18008KT M01/M03 A3044 RMK A01 T10071031  RH  084%=      5-min Rain = 0
KTAT 150545Z 20007KT M01/M03 A3044 RMK A01 T10061031  RH  084%=      5-min Rain = 0
KTAT 150550Z 21006KT M01/M03 A3044 RMK A01 T10081032  RH  084%=      5-min Rain = 0
KTAT 150555Z 22006KT M01/M03 A3044 RMK A01 T10111034  RH  085%=      5-min Rain = 0

Page generated in 0.2957 seconds.